Tiempo atmosférico en la estación meteorológica de Tejeda, Cruz de Tejeda, Las Palmas (1514 m.)



Fecha
DESCASC
Temp. máxima en grados centígrados (hora)
DESCASC
Temp. mínima en grados centígrados (hora)
DESCASC
Temp. media en grados centígrados
DESCASC
Racha de viento máxima en m/sg (hora)
DESCASC
Velocidad máxima media en intervalos de 10 minutos(hora)
DESCASC
Precipitaciones diarias en mm
DESCASC
Precipitaciones de 00:00 a 06:00 en mm
DESCASC
Precipitaciones de 06:00 a 12:00 en mm
DESCASC
Precipitaciones de 12:00 a 18:00 en mm
DESCASC
Precipitaciones de 18:00 a 24:00 en mm
DESCASC
22-04-2019 18.7 (14:30) 10.4 (00:00) 14.6 12.78 (01:20) 8.61 (01:20) 0 0 0 0 0
21-04-2019 14.5 (17:40) 4.8 (07:00) 9.7 15 (08:20) 7.22 (03:30) 1 0.8 0.2 0 0
20-04-2019 7.9 (13:10) 4 (03:00) 6 15 (05:40) 5.83 (21:00) 3 0 1.6 0.4 1
19-04-2019 13.4 (17:40) 3.9 (04:20) 8.6 21.39 (07:50) 9.44 (07:50) 2 1.4 0.6 0 0
18-04-2019 7.3 (15:00) 4.3 (00:00) 5.8 14.44 (22:30) 7.78 (21:50) 0 0 0 0 0
17-04-2019 14.5 (12:20) 5.9 (00:00) 10.2 11.39 (01:10) 6.94 (00:40) 0 0 0 0 0
16-04-2019 19.2 (15:20) 11.1 (00:00) 15.2 11.39 (19:50) 8.61 (19:40) 0 0 0 0 0
15-04-2019 15.3 (19:10) 9 (00:00) 12.2 6.94 (12:20) 3.33 (08:00) 0 0 0 0 0
14-04-2019 20.1 (13:10) 9.7 (00:00) 14.9 7.78 (04:00) 5 (04:00) 0 0 0 0 0
13-04-2019 13.6 (15:50) 4.1 (00:00) 8.9 14.17 (01:50) 10 (06:10) 0.6 0.4 0.2 0 0
12-04-2019 10.8 (16:30) 3.9 (00:00) 7.4 16.39 (02:00) 9.72 (03:30) 4 2.2 1.8 0 0
11-04-2019 10 (18:10) 3.7 (00:00) 6.9 17.78 (22:40) 9.44 (08:50) 1 0.2 0.6 0 0.2
10-04-2019 8.8 (14:40) 3.6 (00:00) 6.2 13.89 (06:20) 8.61 (07:30) 0.8 0.2 0.6 0 0
09-04-2019 10.7 (13:30) 4.4 (00:00) 7.5 11.11 (23:10) 6.11 (02:20) 0 0 0 0 0
08-04-2019 13.8 (17:10) 4.2 (00:00) 9 8.06 (03:10) 4.44 (23:30) 0 0 0 0 0
07-04-2019 14.1 (15:50) 3.8 (00:00) 9 12.78 (00:50) 7.22 (00:30) 0 0 0 0 0
06-04-2019 9.9 (17:40) 3.1 (00:00) 6.5 11.11 (23:59) 5.28 (23:59) 4.4 3 1 0.2 0.2
05-04-2019 10.7 (15:50) 3.9 (00:00) 7.3 9.44 (18:50) 3.33 (17:20) 2.4 1.6 0 0.2 0.6
04-04-2019 8.5 (11:20) 4.4 (00:00) 6.5 7.5 (21:20) 3.89 (07:10) 3 0 0.6 2 0.4
03-04-2019 11.2 (17:50) 5.1 (00:00) 8.1 9.72 (12:30) 5 (12:50) 5.4 0 0 5.4 0
02-04-2019 12.2 (12:40) 4.7 (00:00) 8.4 6.67 (18:20) 3.33 (18:50) 0 0 0 0 0
01-04-2019 10 (12:20) 4.5 (00:00) 7.3 6.94 (18:00) 2.5 (18:10) 0 0 0 0 0
31-03-2019 9.6 (13:20) 3.9 (00:00) 6.8 8.89 (09:00) 4.44 (08:50) 0 0 0 0 0
30-03-2019 12.7 (14:30) 3.5 (00:00) 8.1 7.22 (17:50) 3.33 (17:30) 0.4 0 0.4 0 0
29-03-2019 10.6 (11:50) 3.9 (00:00) 7.3 5 (18:30) 2.5 (18:30) 0 0 0 0 0
28-03-2019 11.3 (12:30) 5 (00:00) 8.2 5.83 (13:50) 3.06 (20:50) 4.8 0 0 1 3.8
27-03-2019 11.2 (14:40) 5.9 (00:00) 8.5 6.39 (00:10) 3.89 (19:00) 0.2 0 0 0.2 0
26-03-2019 12.7 (16:20) 3.8 (00:00) 8.2 7.22 (22:10) 3.06 (15:20) 0.2 0.2 0 0 0
25-03-2019 9.3 (17:00) 4.3 (00:00) 6.8 8.89 (15:50) 3.89 (11:20) 10.4 0 0 10.2 0.2

Gráficas

Temp. máximas Temp. mínimas Temp. medias Precipitaciones Rachas de viento máximas Velocidades máximas media en intervalos de 10 minutos

Datos horarios

Fecha y hora oficial Temperatura (ºC) Velocidad del viento (km/h) Dirección del viento Racha (km/h) Dirección de racha Precipitación (mm) Presión (hPa) Tendencia (hPa) Humedad (%)
2019-04-23 23:00:00 6.1 5 Oeste 27 Oeste 0 -- -- 91
2019-04-23 22:00:00 5.7 3 Sudeste 37 Oeste 0 -- -- 89
2019-04-23 21:00:00 7.2 7 Oeste 38 Oeste 0 -- -- 76
2019-04-23 20:00:00 7.3 19 Noroeste 37 Oeste 0 -- -- 75
2019-04-23 19:00:00 9.4 12 Oeste 39 Oeste 0 -- -- 70
2019-04-23 18:00:00 8.8 24 Oeste 38 Oeste 0 -- -- 86
2019-04-23 17:00:00 9.7 15 Oeste 36 Oeste 0 -- -- 85
2019-04-23 16:00:00 10.8 13 Oeste 35 Oeste 0 -- -- 72
2019-04-23 15:00:00 12.2 9 Oeste 29 Oeste 0 -- -- 68
2019-04-23 14:00:00 12.9 8 Sur 30 Oeste 0 -- -- 61
2019-04-23 13:00:00 12.4 13 Oeste 29 Oeste 0 -- -- 70
2019-04-23 12:00:00 11.4 9 Oeste 21 Oeste 0 -- -- 71
2019-04-23 11:00:00 9.7 9 Sudoeste 32 Oeste 0 -- -- 80
2019-04-23 10:00:00 8.7 12 Oeste 38 Sudoeste 0 -- -- 82
2019-04-23 09:00:00 8.4 13 Oeste 28 Sudoeste 0 -- -- 79
2019-04-23 08:00:00 7 14 Oeste 40 Noroeste 0 -- -- 95
2019-04-23 07:00:00 7.3 20 Oeste 36 Noroeste 0 -- -- 89
2019-04-23 06:00:00 10 20 Oeste 44 Oeste 0 -- -- 53
2019-04-23 05:00:00 11.1 23 Oeste 56 Oeste 0 -- -- 45
2019-04-23 04:00:00 9.1 20 Oeste 44 Oeste 0 -- -- 62
2019-04-23 03:00:00 8.4 16 Oeste 43 Oeste 0 -- -- 73
2019-04-23 02:00:00 11.3 19 Oeste 40 Oeste 0 -- -- 44
2019-04-23 01:00:00 11.8 15 Oeste 42 Oeste 0 -- -- 40
2019-04-23 00:00:00 12.1 12 Sudoeste 40 Oeste 0 -- -- 37
2019-04-22 23:00:00 12.3 13 Oeste 33 Oeste 0 -- -- 36
2019-04-22 22:00:00 12.5 8 Oeste 31 Oeste 0 -- -- 35
2019-04-22 21:00:00 12.4 12 Sudoeste 31 Noroeste 0 -- -- 37
2019-04-22 20:00:00 12.5 8 Oeste 28 Oeste 0 -- -- 47
2019-04-22 19:00:00 15.3 10 Oeste 22 Oeste 0 -- -- 38
2019-04-22 18:00:00 16.2 9 Oeste 28 Oeste 0 -- -- 32
2019-04-22 17:00:00 17.1 7 Oeste 22 Noroeste 0 -- -- 32
2019-04-22 16:00:00 17.8 6 Oeste 25 Oeste 0 -- -- 28
2019-04-22 15:00:00 18.4 5 Sudoeste 18 Sudoeste 0 -- -- 28
2019-04-22 14:00:00 18.5 4 Oeste 22 Noroeste 0 -- -- 29
2019-04-22 13:00:00 17.2 6 Este 23 Noroeste 0 -- -- 31
2019-04-22 12:00:00 16.8 4 Nordeste 24 Sudoeste 0 -- -- 31
2019-04-22 11:00:00 14.7 5 Este 19 Noroeste 0 -- -- 35
2019-04-22 10:00:00 13.1 7 Sudoeste 22 Sudeste 0 -- -- 36
2019-04-22 09:00:00 12.4 5 Sudeste 16 Sudeste 0 -- -- 42
2019-04-22 08:00:00 11.1 4 Sur 14 Sudeste 0 -- -- 39
2019-04-22 07:00:00 11.2 4 Sudeste 22 Sudeste 0 -- -- 37
2019-04-22 06:00:00 10.6 5 Sur 16 Sudeste 0 -- -- 39
2019-04-22 05:00:00 10.4 5 Este 25 Sudeste 0 -- -- 39
2019-04-22 04:00:00 10.8 8 Este 33 Este 0 -- -- 37
2019-04-22 03:00:00 11.4 18 Este 42 Este 0 -- -- 36
2019-04-22 02:00:00 11.3 25 Sudeste 46 Sudeste 0 -- -- 38
2019-04-22 01:00:00 10.8 24 Sudeste 41 Sudeste 0 -- -- 47
2019-04-22 00:00:00 10.4 20 Sudeste 40 Este 0 -- -- 54
2019-04-21 23:00:00 10.3 20 Sudeste 44 Este 0 -- -- 55
2019-04-21 22:00:00 10.6 16 Este 35 Este 0 -- -- 54
2019-04-21 21:00:00 10.6 17 Este 37 Este 0 -- -- 57
2019-04-21 20:00:00 10.3 11 Este 26 Sudeste 0 -- -- 64
2019-04-21 19:00:00 13.7 5 Este 18 Nordeste 0 -- -- 60
2019-04-21 18:00:00 14.4 3 Sudeste 8 Sudeste 0 -- -- 69
2019-04-21 17:00:00 13.6 3 Este 13 Sudeste 0 -- -- 77
2019-04-21 16:00:00 12.8 7 Este 19 Este 0 -- -- 76
2019-04-21 15:00:00 11.1 10 Este 29 Nordeste 0 -- -- 88
2019-04-21 14:00:00 11.5 8 Este 18 Sudeste 0 -- -- 85
2019-04-21 13:00:00 11.4 7 Sudeste 21 Este 0 -- -- 98
2019-04-21 12:00:00 8.8 5 Este 25 Nordeste 0 -- -- 99
2019-04-21 11:00:00 6.7 6 Este 32 Nordeste 0 -- -- 100
2019-04-21 10:00:00 6.7 10 Este 38 Sudeste 0 -- -- 100
2019-04-21 09:00:00 6.2 12 Este 54 Sudeste 0 -- -- 100
2019-04-21 08:00:00 5.4 17 Este 51 Sudeste 0.2 -- -- 100
2019-04-21 07:00:00 4.8 14 Este 44 Este 0 -- -- 100
2019-04-21 06:00:00 5.2 19 Este 49 Este 0 -- -- 100
2019-04-21 05:00:00 5.9 16 Este 50 Sur 0.2 -- -- 100
2019-04-21 04:00:00 6 23 Este 49 Sudeste 0 -- -- 100
2019-04-21 03:00:00 5.2 19 Este 53 Sudeste 0 -- -- 100
2019-04-21 02:00:00 5.7 18 Este 47 Este 0.2 -- -- 100
2019-04-21 01:00:00 6.1 15 Este 41 Sudeste 0.4 -- -- 100
2019-04-21 00:00:00 6.4 12 Este 39 Este 0.8 -- -- 100
2019-04-20 23:00:00 6.1 12 Este 34 Sudeste 0 -- -- 100
2019-04-20 22:00:00 5.9 13 Este 44 Sudeste 0.2 -- -- 100
2019-04-20 21:00:00 5.3 21 Este 50 Sudeste 0 -- -- 100
2019-04-20 20:00:00 6 12 Este 33 Sudeste 0 -- -- 100
2019-04-20 19:00:00 6.5 3 Este 22 Este 0 -- -- 100
2019-04-20 18:00:00 6.5 8 Este 21 Nordeste 0 -- -- 99
2019-04-20 17:00:00 7.7 4 Sudeste 23 Sudeste 0 -- -- 98
2019-04-20 16:00:00 7.5 5 Este 26 Sudeste 0 -- -- 97
2019-04-20 15:00:00 7.3 8 Este 17 Este 0.2 -- -- 99
2019-04-20 14:00:00 7.6 5 Este 19 Sudeste 0.2 -- -- 99
2019-04-20 13:00:00 7.6 6 Sudeste 28 Sudeste 0 -- -- 100
2019-04-20 12:00:00 6.1 10 Este 30 Sudeste 0.8 -- -- 99
2019-04-20 11:00:00 6.2 6 Este 44 Sudeste 0.2 -- -- 100
2019-04-20 10:00:00 5.7 12 Nordeste 35 Nordeste 0.4 -- -- 99
2019-04-20 09:00:00 6 10 Este 34 Sudeste 0.2 -- -- 99
2019-04-20 08:00:00 4.9 17 Este 43 Sudeste 0 -- -- 99
2019-04-20 07:00:00 5.5 9 Este 37 Sudeste 0 -- -- 99
2019-04-20 06:00:00 4.7 13 Este 54 Sudeste 0 -- -- 99
2019-04-20 05:00:00 4.5 15 Este 46 Sudeste 0 -- -- 98
2019-04-20 04:00:00 4.2 11 Nordeste 35 Nordeste 0 -- -- 92
2019-04-20 03:00:00 4 10 Este 40 Nordeste 0 -- -- 92
2019-04-20 02:00:00 4.2 11 Este 38 Nordeste 0 -- -- 92
2019-04-20 01:00:00 4.5 10 Este 42 Nordeste 0 -- -- 87
2019-04-20 00:00:00 4.9 13 Nordeste 42 Nordeste 0 -- -- 89
2019-04-19 23:00:00 7 12 Nordeste 36 Nordeste 0 -- -- 47
2019-04-19 22:00:00 6.9 8 Este 29 Este 0 -- -- 45
2019-04-19 21:00:00 6 7 Este 28 Este 0 -- -- 66
2019-04-19 20:00:00 5.8 6 Este 22 Nordeste 0 -- -- 86
2019-04-19 19:00:00 11.8 5 Sudeste 16 Sudeste 0 -- -- 50
2019-04-19 18:00:00 12.1 6 Este 16 Norte 0 -- -- 57
2019-04-19 17:00:00 12.6 3 Este 18 Sur 0 -- -- 57
2019-04-19 16:00:00 10.6 4 Este 24 Este 0 -- -- 76
2019-04-19 15:00:00 10.8 6 Este 32 Sudeste 0 -- -- 75
2019-04-19 14:00:00 10.1 11 Este 32 Nordeste 0 -- -- 80
2019-04-19 13:00:00 8.4 12 Este 39 Sudeste 0 -- -- 88
2019-04-19 12:00:00 6.3 13 Este 48 Nordeste 0 -- -- 99
2019-04-19 11:00:00 5.2 17 Este 51 Nordeste 0 -- -- 100
2019-04-19 10:00:00 4.6 23 Este 57 Sudeste 0.2 -- -- 100
2019-04-19 09:00:00 4.8 32 Sudeste 75 Este 0 -- -- 100
2019-04-19 08:00:00 4 31 Este 77 Sudeste 0.2 -- -- 100
2019-04-19 07:00:00 4.2 25 Este 62 Sudeste 0.2 -- -- 100
2019-04-19 06:00:00 5.6 33 Sudeste 60 Sudeste 0.4 -- -- 100
2019-04-19 05:00:00 4.6 20 Este 67 Este 0 -- -- 100
2019-04-19 04:00:00 4.5 21 Este 59 Sudeste 0.2 -- -- 100
2019-04-19 03:00:00 5.2 20 Este 60 Este 0.2 -- -- 100
2019-04-19 02:00:00 4.6 28 Este 61 Sudeste 0.4 -- -- 100
2019-04-19 01:00:00 5.2 30 Este 64 Este 0.2 -- -- 100
2019-04-19 00:00:00 4.5 16 Este 48 Sudeste 0 -- -- 99
2019-04-18 23:00:00 4.5 17 Este 52 Este 0 -- -- 99
2019-04-18 22:00:00 4.9 24 Este 48 Sudeste 0 -- -- 99
2019-04-18 21:00:00 4.9 12 Este 39 Este 0 -- -- 99
2019-04-18 20:00:00 5.4 12 Este 37 Sudeste 0 -- -- 97
2019-04-18 19:00:00 5.9 8 Este 31 Este 0 -- -- 95
2019-04-18 18:00:00 6.6 9 Este 37 Sudeste 0 -- -- 97
2019-04-18 17:00:00 6.6 12 Este 37 Sudeste 0 -- -- 99
2019-04-18 16:00:00 6.9 14 Sudeste 31 Sudeste 0 -- -- 99
2019-04-18 15:00:00 7.3 9 Sudeste 33 Este 0 -- -- 99
2019-04-18 14:00:00 7 14 Este 45 Sudeste 0 -- -- 99
2019-04-18 13:00:00 6.4 14 Este 31 Sudeste 0 -- -- 99
2019-04-18 12:00:00 6.7 12 Este 34 Sudeste 0 -- -- 98
2019-04-18 11:00:00 6.6 8 Este 43 Este 0 -- -- 99
2019-04-18 10:00:00 5.5 10 Este 44 Nordeste 0 -- -- 99
2019-04-18 09:00:00 5.2 11 Nordeste 39 Nordeste 0 -- -- 99
2019-04-18 08:00:00 5.4 10 Este 39 Nordeste 0 -- -- 99
2019-04-18 07:00:00 5.4 6 Este 23 Nordeste 0 -- -- 99
2019-04-18 06:00:00 5.2 9 Este 36 Nordeste 0 -- -- 97
2019-04-18 05:00:00 5.1 17 Norte 35 Nordeste 0 -- -- 95
2019-04-18 04:00:00 5.2 12 Nordeste 24 Nordeste 0 -- -- 97
2019-04-18 03:00:00 5.7 4 Este 16 Nordeste 0 -- -- 98
2019-04-18 02:00:00 5.5 4 Este 20 Sudeste 0 -- -- 98
2019-04-18 01:00:00 6.2 3 Sudeste 15 Sudeste 0 -- -- 98
2019-04-18 00:00:00 5.9 4 Este 21 Noroeste 0 -- -- 96
2019-04-17 23:00:00 6.5 9 Oeste 23 Noroeste 0 -- -- 98
2019-04-17 22:00:00 7.3 13 Oeste 24 Noroeste 0 -- -- 97
2019-04-17 21:00:00 7.4 11 Oeste 18 Oeste 0 -- -- 98
2019-04-17 20:00:00 8.4 7 Oeste 16 Oeste 0 -- -- 98
2019-04-17 19:00:00 8.7 10 Oeste 30 Oeste 0 -- -- 98
2019-04-17 18:00:00 10.1 10 Oeste 24 Oeste 0 -- -- 95
2019-04-17 17:00:00 11.1 13 Oeste 25 Oeste 0 -- -- 91
2019-04-17 16:00:00 13.4 6 Sudoeste 20 Oeste 0 -- -- 78
2019-04-17 15:00:00 13.9 6 Sudeste 15 Oeste 0 -- -- 79
2019-04-17 14:00:00 13.2 4 Este 13 Oeste 0 -- -- 81
2019-04-17 13:00:00 12.7 5 Sudeste 15 Sudeste 0 -- -- 79
2019-04-17 12:00:00 14 4 Este 13 Este 0 -- -- 77
2019-04-17 11:00:00 11.8 4 Oeste 10 Sudeste 0 -- -- 56
2019-04-17 10:00:00 10.4 4 Oeste 9 Oeste 0 -- -- 45
2019-04-17 09:00:00 11.8 5 Oeste 13 Oeste 0 -- -- 21
2019-04-17 08:00:00 11.7 8 Oeste 17 Oeste 0 -- -- 23
2019-04-17 07:00:00 11.1 6 Oeste 15 Oeste 0 -- -- 19
2019-04-17 06:00:00 11.8 9 Oeste 24 Oeste 0 -- -- 13
2019-04-17 05:00:00 11.4 8 Oeste 32 Oeste 0 -- -- 22
2019-04-17 04:00:00 12 9 Oeste 36 Oeste 0 -- -- 20
2019-04-17 03:00:00 12.9 13 Oeste 30 Noroeste 0 -- -- 16
2019-04-17 02:00:00 12.5 11 Oeste 41 Oeste 0 -- -- 21
2019-04-17 01:00:00 12.3 22 Oeste 39 Oeste 0 -- -- 25
2019-04-17 00:00:00 12.9 19 Oeste 33 Oeste 0 -- -- 24
2019-04-16 23:00:00 12.1 19 Oeste 33 Oeste 0 -- -- 33
2019-04-16 22:00:00 12.3 19 Oeste 32 Oeste 0 -- -- 39
2019-04-16 21:00:00 12.6 16 Oeste 38 Oeste 0 -- -- 34
2019-04-16 20:00:00 13.4 24 Oeste 41 Oeste 0 -- -- 39
2019-04-16 19:00:00 15.9 18 Oeste 39 Oeste 0 -- -- 45
2019-04-16 18:00:00 15.7 20 Oeste 40 Oeste 0 -- -- 41
2019-04-16 17:00:00 15.2 18 Oeste 38 Oeste 0 -- -- 49
2019-04-16 16:00:00 18.7 12 Oeste 34 Oeste 0 -- -- 52
2019-04-16 15:00:00 18.4 14 Oeste 38 Oeste 0 -- -- 47
2019-04-16 14:00:00 17.9 23 Oeste 37 Oeste 0 -- -- 36
2019-04-16 13:00:00 16.2 21 Oeste 39 Oeste 0 -- -- 33
2019-04-16 12:00:00 15 17 Oeste 31 Oeste 0 -- -- 34
2019-04-16 11:00:00 14.3 9 Oeste 22 Oeste 0 -- -- 23
2019-04-16 10:00:00 14.6 12 Oeste 21 Oeste 0 -- -- 13
2019-04-16 09:00:00 13.8 11 Oeste 18 Oeste 0 -- -- 11
2019-04-16 08:00:00 12.9 11 Oeste 21 Oeste 0 -- -- 12
2019-04-16 07:00:00 12.6 10 Oeste 18 Oeste 0 -- -- 10
2019-04-16 06:00:00 13.2 10 Oeste 19 Oeste 0 -- -- 11
2019-04-16 05:00:00 13.8 10 Oeste 19 Oeste 0 -- -- 10
2019-04-16 04:00:00 13.5 8 Oeste 15 Oeste 0 -- -- 13
2019-04-16 03:00:00 14.1 9 Noroeste 14 Noroeste 0 -- -- 14
2019-04-16 02:00:00 13.7 4 Oeste 13 Oeste 0 -- -- 14
2019-04-16 01:00:00 14.5 9 Noroeste 12 Noroeste 0 -- -- 15
2019-04-16 00:00:00 13.7 3 Oeste 10 Nordeste 0 -- -- 15
2019-04-15 23:00:00 12.1 6 Nordeste 10 Nordeste 0 -- -- 53
2019-04-15 22:00:00 11.3 3 Nordeste 6 Nordeste 0 -- -- 54
2019-04-15 21:00:00 11.8 2 Nordeste 10 Oeste 0 -- -- 61
2019-04-15 20:00:00 13.2 7 Oeste 16 Sudoeste 0 -- -- 84
2019-04-15 19:00:00 14 2 Este 9 Este 0 -- -- 75
2019-04-15 18:00:00 13.2 4 Este 13 Este 0 -- -- 79
2019-04-15 17:00:00 13.4 3 Este 15 Este 0 -- -- 79
2019-04-15 16:00:00 13.9 4 Este 15 Sudeste 0 -- -- 82
2019-04-15 15:00:00 13.1 4 Este 17 Este 0 -- -- 83
2019-04-15 14:00:00 13 5 Este 19 Este 0 -- -- 80
2019-04-15 13:00:00 11.8 5 Este 25 Este 0 -- -- 82
2019-04-15 12:00:00 11.1 5 Este 20 Sudeste 0 -- -- 71
2019-04-15 11:00:00 11.2 3 Este 14 Sudeste 0 -- -- 73
2019-04-15 10:00:00 13.7 3 Este 19 Nordeste 0 -- -- 37
2019-04-15 09:00:00 12.1 3 Este 13 Nordeste 0 -- -- 27
2019-04-15 08:00:00 12.3 12 Nordeste 21 Norte 0 -- -- 21
2019-04-15 07:00:00 11.7 8 Norte 15 Nordeste 0 -- -- 21
2019-04-15 06:00:00 10.9 4 Oeste 10 Oeste 0 -- -- 20
2019-04-15 05:00:00 12.2 7 Nordeste 14 Nordeste 0 -- -- 20
2019-04-15 04:00:00 11.3 4 Nordeste 14 Noroeste 0 -- -- 21
2019-04-15 03:00:00 10.4 4 Oeste 8 Oeste 0 -- -- 26
2019-04-15 02:00:00 10.5 0 Calma 7 Nordeste 0 -- -- 30
2019-04-15 01:00:00 10.4 5 Oeste 10 Oeste 0 -- -- 41
2019-04-15 00:00:00 12.6 4 Oeste 10 Oeste 0 -- -- 17
2019-04-14 23:00:00 13.4 5 Oeste 8 Oeste 0 -- -- 15
2019-04-14 22:00:00 13.2 5 Oeste 15 Oeste 0 -- -- 22
2019-04-14 21:00:00 11.6 6 Oeste 18 Oeste 0 -- -- 62
2019-04-14 20:00:00 13.3 12 Oeste 21 Oeste 0 -- -- 54
2019-04-14 19:00:00 16.1 9 Oeste 22 Oeste 0 -- -- 54
2019-04-14 18:00:00 15.2 13 Oeste 23 Oeste 0 -- -- 56
2019-04-14 17:00:00 18.2 4 Sudeste 20 Oeste 0 -- -- 67
2019-04-14 16:00:00 19.4 5 Sudoeste 12 Sur 0 -- -- 44
2019-04-14 15:00:00 19.6 4 Sudeste 14 Oeste 0 -- -- 50
2019-04-14 14:00:00 18.5 8 Oeste 15 Oeste 0 -- -- 33
2019-04-14 13:00:00 20 3 Sudeste 12 Oeste 0 -- -- 45
2019-04-14 12:00:00 19.1 4 Sudoeste 11 Este 0 -- -- 23
2019-04-14 11:00:00 16.1 4 Este 10 Sudeste 0 -- -- 31
2019-04-14 10:00:00 14.6 0 Calma 12 Nordeste 0 -- -- 17
2019-04-14 09:00:00 13.3 9 Nordeste 23 Nordeste 0 -- -- 20
2019-04-14 08:00:00 11.2 15 Nordeste 22 Nordeste 0 -- -- 22
2019-04-14 07:00:00 12.1 5 Este 20 Nordeste 0 -- -- 20
2019-04-14 06:00:00 11.3 15 Nordeste 24 Este 0 -- -- 20
2019-04-14 05:00:00 10.4 16 Nordeste 26 Este 0 -- -- 23
2019-04-14 04:00:00 10.3 18 Este 28 Nordeste 0 -- -- 25
2019-04-14 03:00:00 10.7 15 Este 25 Nordeste 0 -- -- 25
2019-04-14 02:00:00 10.4 6 Este 22 Nordeste 0 -- -- 28
2019-04-14 01:00:00 11.5 14 Nordeste 23 Nordeste 0 -- -- 19
2019-04-14 00:00:00 11.7 8 Este 23 Este 0 -- -- 19
2019-04-13 23:00:00 10.9 13 Este 27 Este 0 -- -- 24
2019-04-13 22:00:00 11 10 Este 30 Nordeste 0 -- -- 25
2019-04-13 21:00:00 11 20 Este 31 Nordeste 0 -- -- 27
2019-04-13 20:00:00 11.3 9 Este 23 Nordeste 0 -- -- 29
2019-04-13 19:00:00 12 4 Este 12 Este 0 -- -- 58
2019-04-13 18:00:00 13 3 Este 22 Nordeste 0 -- -- 34
2019-04-13 17:00:00 13.3 4 Este 23 Nordeste 0 -- -- 36
2019-04-13 16:00:00 13.6 6 Este 27 Nordeste 0 -- -- 32
2019-04-13 15:00:00 12.8 5 Este 19 Nordeste 0 -- -- 39
2019-04-13 14:00:00 12.6 4 Este 26 Nordeste 0 -- -- 58
2019-04-13 13:00:00 11.7 5 Este 37 Nordeste 0 -- -- 39
2019-04-13 12:00:00 11.5 5 Este 38 Este 0 -- -- 38
2019-04-13 11:00:00 10.8 11 Este 44 Nordeste 0 -- -- 35
2019-04-13 10:00:00 9.6 9 Este 40 Este 0 -- -- 33
2019-04-13 09:00:00 8.5 9 Este 47 Nordeste 0 -- -- 43
2019-04-13 08:00:00 4.7 23 Este 46 Nordeste 0.2 -- -- 97
2019-04-13 07:00:00 4.6 30 Este 48 Nordeste 0 -- -- 100
2019-04-13 06:00:00 4.1 24 Este 45 Este 0 -- -- 99
2019-04-13 05:00:00 4.6 24 Este 43 Nordeste 0.2 -- -- 100
2019-04-13 04:00:00 4.5 19 Este 45 Este 0 -- -- 99
2019-04-13 03:00:00 5.1 28 Nordeste 49 Nordeste 0.2 -- -- 99
2019-04-13 02:00:00 5 28 Este 51 Nordeste 0 -- -- 98
2019-04-13 01:00:00 6.6 26 Este 48 Nordeste 0 -- -- 66
2019-04-13 00:00:00 5.3 26 Este 53 Este 0 -- -- 77
2019-04-12 23:00:00 7.3 30 Nordeste 50 Nordeste 0 -- -- 52
2019-04-12 22:00:00 4.8 26 Nordeste 43 Nordeste 0 -- -- 82
2019-04-12 21:00:00 5.5 18 Este 53 Nordeste 0 -- -- 72
2019-04-12 20:00:00 7.7 22 Nordeste 45 Nordeste 0 -- -- 35
2019-04-12 19:00:00 8.8 12 Este 36 Nordeste 0 -- -- 41
2019-04-12 18:00:00 8.9 6 Este 39 Sudeste 0 -- -- 56
2019-04-12 17:00:00 9.8 11 Este 44 Sudeste 0 -- -- 81
2019-04-12 16:00:00 10.7 23 Este 47 Este 0 -- -- 50
2019-04-12 15:00:00 8.9 15 Este 51 Sudeste 0 -- -- 82
2019-04-12 14:00:00 8.2 18 Este 42 Sudeste 0 -- -- 98
2019-04-12 13:00:00 6.4 12 Este 40 Nordeste 0 -- -- 100
2019-04-12 12:00:00 6.4 18 Este 51 Este 0.2 -- -- 100
2019-04-12 11:00:00 5.8 13 Este 53 Este 0.2 -- -- 100
2019-04-12 10:00:00 5.1 14 Este 48 Nordeste 0.4 -- -- 100
2019-04-12 09:00:00 4.9 16 Este 50 Nordeste 0.4 -- -- 100
2019-04-12 08:00:00 4.6 8 Este 51 Nordeste 0.2 -- -- 100
2019-04-12 07:00:00 4.3 16 Este 55 Nordeste 0.4 -- -- 100
2019-04-12 06:00:00 5.2 24 Este 58 Sudeste 0.2 -- -- 100
2019-04-12 05:00:00 4.3 14 Este 49 Nordeste 0.4 -- -- 100
2019-04-12 04:00:00 4.7 13 Este 51 Nordeste 0.6 -- -- 100
2019-04-12 03:00:00 4.8 17 Este 57 Sudeste 0.4 -- -- 100
2019-04-12 02:00:00 4.8 24 Este 59 Este 0.4 -- -- 100
2019-04-12 01:00:00 4.7 10 Este 51 Sudeste 0.2 -- -- 100
2019-04-12 00:00:00 4.7 16 Este 58 Sudeste 0.2 -- -- 100
2019-04-11 23:00:00 5 31 Este 64 Nordeste 0 -- -- 99
2019-04-11 22:00:00 4.9 24 Este 58 Nordeste 0 -- -- 99
2019-04-11 21:00:00 4.6 15 Este 40 Nordeste 0 -- -- 95
2019-04-11 20:00:00 5.2 15 Este 48 Nordeste 0 -- -- 88
2019-04-11 19:00:00 6.8 9 Este 36 Nordeste 0 -- -- 79
2019-04-11 18:00:00 9.2 5 Este 31 Norte 0 -- -- 75
2019-04-11 17:00:00 7.5 14 Este 44 Nordeste 0 -- -- 88
2019-04-11 16:00:00 8.8 4 Este 23 Este 0 -- -- 87
2019-04-11 15:00:00 9.1 6 Este 27 Sudeste 0 -- -- 86
2019-04-11 14:00:00 8.2 7 Este 36 Este 0 -- -- 91
2019-04-11 13:00:00 7.9 8 Este 38 Este 0 -- -- 91
2019-04-11 12:00:00 6.7 13 Este 46 Nordeste 0 -- -- 98
2019-04-11 11:00:00 5.5 19 Este 40 Nordeste 0 -- -- 100
2019-04-11 10:00:00 4.5 12 Este 46 Este 0.2 -- -- 100
2019-04-11 09:00:00 4.1 31 Nordeste 54 Nordeste 0.2 -- -- 100
2019-04-11 08:00:00 3.7 27 Nordeste 50 Nordeste 0 -- -- 100
2019-04-11 07:00:00 3.9 23 Nordeste 49 Nordeste 0.2 -- -- 100
2019-04-11 06:00:00 4 23 Nordeste 46 Nordeste 0 -- -- 100
2019-04-11 05:00:00 4 23 Este 47 Nordeste 0.2 -- -- 100
2019-04-11 04:00:00 4.1 23 Este 50 Este 0 -- -- 100
2019-04-11 03:00:00 3.9 20 Este 48 Este 0 -- -- 99
2019-04-11 02:00:00 3.8 8 Este 37 Nordeste 0 -- -- 98
2019-04-11 01:00:00 3.8 22 Este 41 Nordeste 0 -- -- 93
2019-04-11 00:00:00 4 13 Este 39 Nordeste 0 -- -- 99
2019-04-10 23:00:00 4.9 19 Este 46 Nordeste 0 -- -- 100
2019-04-10 22:00:00 5.2 12 Este 44 Sudeste 0 -- -- 99
2019-04-10 21:00:00 4.6 18 Este 43 Nordeste 0 -- -- 99
2019-04-10 20:00:00 5.4 15 Este 44 Nordeste 0 -- -- 98
2019-04-10 19:00:00 6.1 15 Este 47 Este 0 -- -- 96
2019-04-10 18:00:00 6.5 12 Este 39 Nordeste 0 -- -- 93
2019-04-10 17:00:00 7.4 8 Este 31 Sudeste 0 -- -- 91
2019-04-10 16:00:00 7.7 6 Este 38 Sudeste 0 -- -- 91
2019-04-10 15:00:00 7.5 8 Este 33 Nordeste 0 -- -- 95
2019-04-10 14:00:00 8.1 5 Este 38 Este 0 -- -- 91
2019-04-10 13:00:00 7.7 7 Este 37 Este 0 -- -- 95
2019-04-10 12:00:00 5.9 10 Este 44 Sudeste 0 -- -- 99
2019-04-10 11:00:00 5 15 Este 41 Nordeste 0 -- -- 100
2019-04-10 10:00:00 4.5 12 Este 44 Sudeste 0 -- -- 100
2019-04-10 09:00:00 4.4 16 Este 42 Nordeste 0.2 -- -- 100
2019-04-10 08:00:00 4.8 24 Nordeste 42 Este 0.2 -- -- 100
2019-04-10 07:00:00 4.5 22 Este 50 Nordeste 0.2 -- -- 100
2019-04-10 06:00:00 4 20 Este 47 Nordeste 0.2 -- -- 99
2019-04-10 05:00:00 3.6 17 Este 43 Nordeste 0 -- -- 99
2019-04-10 04:00:00 4.1 12 Este 36 Este 0 -- -- 99
2019-04-10 03:00:00 3.7 8 Este 33 Sudeste 0 -- -- 97
2019-04-10 02:00:00 4 11 Este 40 Este 0 -- -- 97
2019-04-10 01:00:00 4.2 11 Este 41 Este 0 -- -- 95
2019-04-10 00:00:00 4.5 9 Este 40 Este 0 -- -- 94
2019-04-09 23:00:00 5.6 17 Este 37 Sudeste 0 -- -- 71
2019-04-09 22:00:00 7.2 9 Este 33 Nordeste 0 -- -- 39
2019-04-09 21:00:00 8 17 Nordeste 35 Nordeste 0 -- -- 42
2019-04-09 20:00:00 7.8 19 Nordeste 32 Nordeste 0 -- -- 44
2019-04-09 19:00:00 7.8 13 Nordeste 28 Nordeste 0 -- -- 94
2019-04-09 18:00:00 8.4 9 Nordeste 23 Nordeste 0 -- -- 97
2019-04-09 17:00:00 8.5 5 Este 24 Sudeste 0 -- -- 99
2019-04-09 16:00:00 8.7 4 Este 20 Este 0 -- -- 99
2019-04-09 15:00:00 9.5 3 Este 23 Nordeste 0 -- -- 98
2019-04-09 14:00:00 9.9 4 Este 22 Sudeste 0 -- -- 97
2019-04-09 13:00:00 10.4 7 Este 32 Este 0 -- -- 84
2019-04-09 12:00:00 9.2 5 Este 35 Este 0 -- -- 86
2019-04-09 11:00:00 7.6 5 Este 32 Este 0 -- -- 95
2019-04-09 10:00:00 6.3 8 Este 33 Sudeste 0 -- -- 99
2019-04-09 09:00:00 5.5 6 Este 28 Nordeste 0 -- -- 99
2019-04-09 08:00:00 5.3 7 Este 22 Este 0 -- -- 98
2019-04-09 07:00:00 4.5 2 Este 28 Este 0 -- -- 94
2019-04-09 06:00:00 6.6 16 Este 31 Nordeste 0 -- -- 75
2019-04-09 05:00:00 7.1 17 Este 26 Nordeste 0 -- -- 67
2019-04-09 04:00:00 7.1 19 Nordeste 28 Este 0 -- -- 61
2019-04-09 03:00:00 7.4 20 Nordeste 27 Nordeste 0 -- -- 51
2019-04-09 02:00:00 7.7 20 Nordeste 28 Nordeste 0 -- -- 48
2019-04-09 01:00:00 8.8 18 Nordeste 25 Nordeste 0 -- -- 28
2019-04-09 00:00:00 9.3 11 Nordeste 23 Nordeste 0 -- -- 15
2019-04-08 23:00:00 10.2 12 Nordeste 18 Este 0 -- -- 10
2019-04-08 22:00:00 10.2 15 Nordeste 18 Nordeste 0 -- -- 15
2019-04-08 21:00:00 5.6 6 Este 13 Nordeste 0 -- -- 96
2019-04-08 20:00:00 7.4 6 Este 12 Este 0 -- -- 97
2019-04-08 19:00:00 9.9 3 Este 11 Sudeste 0 -- -- 93
2019-04-08 18:00:00 12.6 3 Este 16 Oeste 0 -- -- 81
2019-04-08 17:00:00 13.5 4 Sudeste 23 Oeste 0 -- -- 75
2019-04-08 16:00:00 11.7 8 Oeste 23 Oeste 0 -- -- 80
2019-04-08 15:00:00 10.7 14 Oeste 27 Oeste 0 -- -- 87
2019-04-08 14:00:00 12 10 Oeste 23 Oeste 0 -- -- 77
2019-04-08 13:00:00 12.1 7 Oeste 17 Oeste 0 -- -- 76
2019-04-08 12:00:00 9.1 12 Oeste 22 Oeste 0 -- -- 89
2019-04-08 11:00:00 8.7 3 Sudeste 11 Este 0 -- -- 98
2019-04-08 10:00:00 7.5 0 Calma 14 Sudeste 0 -- -- 99
2019-04-08 09:00:00 5.6 9 Este 23 Nordeste 0 -- -- 100
2019-04-08 08:00:00 4.9 8 Nordeste 16 Nordeste 0 -- -- 100
2019-04-08 07:00:00 5 3 Sudoeste 17 Nordeste 0 -- -- 100
2019-04-08 06:00:00 4.9 9 Nordeste 18 Norte 0 -- -- 99
2019-04-08 05:00:00 5.4 3 Este 21 Nordeste 0 -- -- 99
2019-04-08 04:00:00 5.8 6 Este 29 Nordeste 0 -- -- 99
2019-04-08 03:00:00 5.9 7 Este 23 Nordeste 0 -- -- 99
2019-04-08 02:00:00 6 6 Este 23 Sudeste 0 -- -- 98
2019-04-08 01:00:00 5.6 7 Este 17 Nordeste 0 -- -- 96
2019-04-08 00:00:00 6.7 3 Norte 24 Norte 0 -- -- 73
2019-04-07 23:00:00 6.2 5 Nordeste 21 Norte 0 -- -- 74
2019-04-07 22:00:00 7 3 Noroeste 10 Noroeste 0 -- -- 72
2019-04-07 21:00:00 7.3 5 Oeste 14 Oeste 0 -- -- 93
2019-04-07 20:00:00 9.1 7 Oeste 18 Oeste 0 -- -- 83
2019-04-07 19:00:00 12.1 3 Este 22 Oeste 0 -- -- 76
2019-04-07 18:00:00 12.4 10 Oeste 22 Oeste 0 -- -- 63
2019-04-07 17:00:00 12.7 9 Oeste 24 Oeste 0 -- -- 64
2019-04-07 16:00:00 13.9 4 Este 14 Oeste 0 -- -- 70
2019-04-07 15:00:00 11.6 3 Este 8 Sudeste 0 -- -- 88
2019-04-07 14:00:00 9.6 2 Este 11 Este 0 -- -- 91
2019-04-07 13:00:00 9.9 3 Este 12 Sudeste 0 -- -- 86
2019-04-07 12:00:00 10.7 2 Oeste 14 Sudeste 0 -- -- 80
2019-04-07 11:00:00 8.8 3 Este 14 Sudeste 0 -- -- 89
2019-04-07 10:00:00 7.9 2 Este 14 Este 0 -- -- 88
2019-04-07 09:00:00 6.3 8 Este 16 Nordeste 0 -- -- 88
2019-04-07 08:00:00 5.4 15 Nordeste 19 Nordeste 0 -- -- 87
2019-04-07 07:00:00 5.6 13 Nordeste 22 Nordeste 0 -- -- 83
2019-04-07 06:00:00 4.8 17 Nordeste 24 Nordeste 0 -- -- 89
2019-04-07 05:00:00 5 17 Nordeste 34 Nordeste 0 -- -- 86
2019-04-07 04:00:00 4.9 19 Nordeste 26 Este 0 -- -- 87
2019-04-07 03:00:00 4.7 16 Este 28 Nordeste 0 -- -- 85
2019-04-07 02:00:00 4.1 11 Este 37 Nordeste 0 -- -- 99
2019-04-07 01:00:00 4 24 Nordeste 46 Nordeste 0 -- -- 97
2019-04-07 00:00:00 3.9 19 Este 40 Este 0 -- -- 99
2019-04-06 23:00:00 3.8 15 Este 39 Sudeste 0 -- -- 100
2019-04-06 22:00:00 4.6 9 Este 32 Sudeste 0.2 -- -- 99
2019-04-06 21:00:00 5.6 5 Este 20 Nordeste 0 -- -- 99
2019-04-06 20:00:00 5.3 5 Nordeste 20 Noroeste 0 -- -- 97
2019-04-06 19:00:00 8.1 8 Oeste 21 Noroeste 0 -- -- 72
2019-04-06 18:00:00 8.3 9 Oeste 23 Noroeste 0 -- -- 74
2019-04-06 17:00:00 8.1 4 Sur 19 Sudeste 0 -- -- 88
2019-04-06 16:00:00 7.1 6 Este 22 Sudeste 0 -- -- 86
2019-04-06 15:00:00 6.8 6 Nordeste 18 Noroeste 0 -- -- 92
2019-04-06 14:00:00 6.3 4 Este 19 Oeste 0 -- -- 97
2019-04-06 13:00:00 5.9 6 Noroeste 33 Nordeste 0.2 -- -- 98
2019-04-06 12:00:00 5.9 8 Este 29 Sudeste 0.6 -- -- 99
2019-04-06 11:00:00 5.2 4 Este 33 Sudeste 0 -- -- 96
2019-04-06 10:00:00 4.3 6 Norte 22 Noroeste 0 -- -- 97
2019-04-06 09:00:00 3.9 6 Oeste 27 Oeste 0 -- -- 99
2019-04-06 08:00:00 4.4 5 Oeste 28 Sudoeste 0.4 -- -- 99
2019-04-06 07:00:00 3.8 7 Noroeste 19 Noroeste 0 -- -- 98
2019-04-06 06:00:00 3.2 4 Norte 24 Oeste 0 -- -- 99
2019-04-06 05:00:00 3.6 9 Sudoeste 28 Oeste 0 -- -- 100
2019-04-06 04:00:00 4 7 Sudeste 27 Noroeste 0.2 -- -- 100
2019-04-06 03:00:00 4.5 8 Noroeste 31 Oeste 1.2 -- -- 100
2019-04-06 02:00:00 4.3 4 Oeste 28 Oeste 0.2 -- -- 100
2019-04-06 01:00:00 4.5 8 Noroeste 26 Sudoeste 1.4 -- -- 99
2019-04-06 00:00:00 4.8 6 Oeste 30 Oeste 0.2 -- -- 99
2019-04-05 23:00:00 4.5 4 Sudoeste 19 Noroeste 0.2 -- -- 99
2019-04-05 22:00:00 4.6 8 Oeste 26 Oeste 0 -- -- 99
2019-04-05 21:00:00 5.3 5 Oeste 33 Oeste 0.2 -- -- 99
2019-04-05 20:00:00 5.6 11 Oeste 31 Oeste 0 -- -- 99
2019-04-05 19:00:00 5.9 12 Oeste 34 Oeste 0 -- -- 98
2019-04-05 18:00:00 6.5 9 Oeste 22 Oeste 0.2 -- -- 96
2019-04-05 17:00:00 8.3 5 Sudoeste 21 Oeste 0 -- -- 85
2019-04-05 16:00:00 9.9 7 Sudoeste 27 Noroeste 0 -- -- 73
2019-04-05 15:00:00 8.6 10 Oeste 33 Oeste 0 -- -- 77
2019-04-05 14:00:00 8.4 9 Oeste 23 Noroeste 0 -- -- 79
2019-04-05 13:00:00 7.4 6 Oeste 22 Oeste 0 -- -- 88
2019-04-05 12:00:00 6.7 8 Sudoeste 22 Oeste 0 -- -- 98
2019-04-05 11:00:00 5.2 4 Norte 26 Oeste 0 -- -- 100
2019-04-05 10:00:00 4.9 6 Noroeste 24 Oeste 0 -- -- 100
2019-04-05 09:00:00 4.6 4 Oeste 14 Oeste 0 -- -- 100
2019-04-05 08:00:00 4.4 5 Oeste 21 Oeste 0 -- -- 100
2019-04-05 07:00:00 4 10 Oeste 27 Oeste 0 -- -- 100
2019-04-05 06:00:00 3.9 4 Oeste 18 Oeste 0 -- -- 100
2019-04-05 05:00:00 4.1 5 Oeste 16 Oeste 0.2 -- -- 100
2019-04-05 04:00:00 4.6 6 Oeste 19 Noroeste 0.2 -- -- 100
2019-04-05 03:00:00 4.9 5 Oeste 17 Oeste 1 -- -- 100
2019-04-05 02:00:00 5 5 Oeste 24 Oeste 0.2 -- -- 100
2019-04-05 01:00:00 4.8 6 Sudoeste 22 Oeste 0 -- -- 99
2019-04-05 00:00:00 5.3 3 Noroeste 20 Oeste 0 -- -- 99
2019-04-04 23:00:00 5.2 3 Oeste 13 Sur 0.2 -- -- 99
2019-04-04 22:00:00 5.1 8 Sudoeste 27 Oeste 0 -- -- 98
2019-04-04 21:00:00 5.2 4 Sudoeste 18 Oeste 0 -- -- 95
2019-04-04 20:00:00 5.5 4 Sudeste 17 Oeste 0 -- -- 94
2019-04-04 19:00:00 6.1 5 Noroeste 23 Oeste 0.2 -- -- 94
2019-04-04 18:00:00 6.2 5 Oeste 15 Nordeste 0 -- -- 97
2019-04-04 17:00:00 6 4 Sudoeste 15 Nordeste 0.8 -- -- 97
2019-04-04 16:00:00 7 3 Oeste 19 Noroeste 0.2 -- -- 96
2019-04-04 15:00:00 7.6 5 Sudoeste 18 Oeste 0 -- -- 87
2019-04-04 14:00:00 7.9 6 Sudoeste 16 Sur 0 -- -- 92
2019-04-04 13:00:00 7.1 6 Sur 17 Oeste 1 -- -- 96
2019-04-04 12:00:00 6.3 6 Oeste 16 Oeste 0.2 -- -- 97
2019-04-04 11:00:00 6.9 4 Oeste 13 Este 0 -- -- 88
2019-04-04 10:00:00 6.1 3 Este 11 Sudeste 0 -- -- 93
2019-04-04 09:00:00 6 2 Noroeste 9 Oeste 0.2 -- -- 85
2019-04-04 08:00:00 4.8 8 Oeste 23 Oeste 0.2 -- -- 96
2019-04-04 07:00:00 4.6 10 Oeste 21 Oeste 0 -- -- 94
2019-04-04 06:00:00 4.4 6 Oeste 18 Oeste 0 -- -- 95
2019-04-04 05:00:00 4.6 6 Oeste 13 Oeste 0 -- -- 96
2019-04-04 04:00:00 4.8 5 Oeste 11 Oeste 0 -- -- 96
2019-04-04 03:00:00 4.8 5 Oeste 13 Oeste 0 -- -- 98
2019-04-04 02:00:00 4.9 6 Oeste 15 Oeste 0 -- -- 98
2019-04-04 01:00:00 5.1 5 Oeste 20 Oeste 0 -- -- 97
2019-04-04 00:00:00 5.4 9 Oeste 25 Oeste 0 -- -- 91
2019-04-03 23:00:00 5.6 6 Oeste 23 Sudoeste 0 -- -- 93
2019-04-03 22:00:00 5.8 9 Oeste 23 Oeste 0 -- -- 91
2019-04-03 21:00:00 6 7 Sudoeste 17 Oeste 0 -- -- 84
2019-04-03 20:00:00 9 4 Sur 13 Oeste 0 -- -- 80
2019-04-03 19:00:00 10.8 4 Este 22 Oeste 0 -- -- 78
2019-04-03 18:00:00 10.7 6 Sur 26 Oeste 0 -- -- 69
2019-04-03 17:00:00 10.3 7 Sudoeste 25 Oeste 0 -- -- 69
2019-04-03 16:00:00 9.1 14 Oeste 29 Oeste 0 -- -- 75
2019-04-03 15:00:00 8.8 14 Oeste 28 Oeste 0 -- -- 80
2019-04-03 14:00:00 8.4 16 Oeste 30 Oeste 0 -- -- 83
2019-04-03 13:00:00 7 13 Oeste 35 Oeste 5.4 -- -- 99
2019-04-03 12:00:00 7.9 6 Oeste 18 Oeste 0 -- -- 88
2019-04-03 11:00:00 7.2 7 Oeste 18 Oeste 0 -- -- 92
2019-04-03 10:00:00 6.8 7 Oeste 16 Oeste 0 -- -- 98
2019-04-03 09:00:00 6.4 4 Oeste 10 Oeste 0 -- -- 99
2019-04-03 08:00:00 6.6 4 Oeste 13 Oeste 0 -- -- 100
2019-04-03 07:00:00 6.6 5 Oeste 18 Oeste 0 -- -- 100
2019-04-03 06:00:00 6.5 3 Sudoeste 17 Oeste 0 -- -- 100
2019-04-03 05:00:00 6.5 0 Calma 18 Oeste 0 -- -- 100
2019-04-03 04:00:00 6.4 7 Oeste 18 Oeste 0 -- -- 99
2019-04-03 03:00:00 6.4 8 Oeste 20 Oeste 0 -- -- 99
2019-04-03 02:00:00 7 12 Oeste 18 Oeste 0 -- -- 100
2019-04-03 01:00:00 7.4 6 Oeste 14 Oeste 0 -- -- 99
2019-04-03 00:00:00 7.4 0 Calma 5 Noroeste 0 -- -- 99
2019-04-02 23:00:00 7.1 5 Oeste 15 Oeste 0 -- -- 99
2019-04-02 22:00:00 7.4 6 Oeste 13 Oeste 0 -- -- 99
2019-04-02 21:00:00 7.9 4 Noroeste 19 Sudoeste 0 -- -- 99
2019-04-02 20:00:00 8.1 10 Oeste 20 Oeste 0 -- -- 99
2019-04-02 19:00:00 8.6 9 Oeste 24 Oeste 0 -- -- 98
2019-04-02 18:00:00 9.1 7 Oeste 19 Oeste 0 -- -- 97
2019-04-02 17:00:00 9.8 4 Sudeste 14 Oeste 0 -- -- 93
2019-04-02 16:00:00 10.2 3 Sudeste 9 Sudeste 0 -- -- 92
2019-04-02 15:00:00 9.8 3 Sudeste 12 Este 0 -- -- 91
2019-04-02 14:00:00 11.2 4 Sudeste 16 Noroeste 0 -- -- 85
2019-04-02 13:00:00 11.8 5 Sudeste 22 Oeste 0 -- -- 76
2019-04-02 12:00:00 10.7 10 Oeste 22 Oeste 0 -- -- 62
2019-04-02 11:00:00 9.7 5 Sur 18 Oeste 0 -- -- 69
2019-04-02 10:00:00 7.6 4 Sur 10 Sur 0 -- -- 83
2019-04-02 09:00:00 6.5 4 Oeste 13 Oeste 0 -- -- 85
2019-04-02 08:00:00 5.6 3 Oeste 6 Nordeste 0 -- -- 76
2019-04-02 07:00:00 5.4 3 Oeste 10 Noroeste 0 -- -- 94
2019-04-02 06:00:00 6.4 5 Oeste 10 Oeste 0 -- -- 82
2019-04-02 05:00:00 6.2 3 Oeste 18 Noroeste 0 -- -- 83
2019-04-02 04:00:00 7 5 Noroeste 13 Nordeste 0 -- -- 78
2019-04-02 03:00:00 6.4 4 Nordeste 10 Nordeste 0 -- -- 86
2019-04-02 02:00:00 6.3 0 Calma 10 Nordeste 0 -- -- 90
2019-04-02 01:00:00 6.1 6 Nordeste 9 Nordeste 0 -- -- 98
2019-04-02 00:00:00 5.9 3 Oeste 4 Oeste 0 -- -- 98
2019-04-01 23:00:00 5.9 0 Calma 4 Sudeste 0 -- -- 98
2019-04-01 22:00:00 6.7 0 Calma 13 Oeste 0 -- -- 98
2019-04-01 21:00:00 7.1 6 Oeste 12 Oeste 0 -- -- 99
2019-04-01 20:00:00 7.3 5 Oeste 16 Oeste 0 -- -- 98
2019-04-01 19:00:00 7.9 4 Oeste 18 Oeste 0 -- -- 98
2019-04-01 18:00:00 8.4 8 Sudoeste 25 Oeste 0 -- -- 98
2019-04-01 17:00:00 8.2 5 Sudeste 21 Sudoeste 0 -- -- 97
2019-04-01 16:00:00 8.2 4 Sudeste 18 Oeste 0 -- -- 97
2019-04-01 15:00:00 8.8 4 Sudeste 9 Este 0 -- -- 97
2019-04-01 14:00:00 9.5 7 Oeste 15 Oeste 0 -- -- 91
2019-04-01 13:00:00 9.6 3 Sudeste 13 Oeste 0 -- -- 88
2019-04-01 12:00:00 9.3 3 Nordeste 15 Oeste 0 -- -- 79
2019-04-01 11:00:00 8.3 5 Oeste 10 Oeste 0 -- -- 77
2019-04-01 10:00:00 7.6 2 Sudoeste 5 Sur 0 -- -- 78
2019-04-01 09:00:00 6.7 3 Oeste 4 Noroeste 0 -- -- 84
2019-04-01 08:00:00 4.7 2 Noroeste 4 Oeste 0 -- -- 92
2019-04-01 07:00:00 4.8 0 Calma 6 Oeste 0 -- -- 94
2019-04-01 06:00:00 5.1 3 Oeste 5 Noroeste 0 -- -- 96
2019-04-01 05:00:00 5.4 0 Calma 7 Noroeste 0 -- -- 97
2019-04-01 04:00:00 5.6 4 Oeste 9 Oeste 0 -- -- 96
2019-04-01 03:00:00 5.3 0 Calma 11 Oeste 0 -- -- 95
2019-04-01 02:00:00 5.3 3 Oeste 9 Oeste 0 -- -- 98
2019-04-01 01:00:00 5.7 3 Oeste 5 Oeste 0 -- -- 98
2019-04-01 00:00:00 5.7 3 Oeste 8 Oeste 0 -- -- 98
2019-03-31 23:00:00 6.1 3 Oeste 5 Oeste 0 -- -- 96
2019-03-31 22:00:00 6.6 3 Oeste 5 Noroeste 0 -- -- 95
2019-03-31 21:00:00 7 0 Calma 7 Oeste 0 -- -- 94
2019-03-31 20:00:00 7.3 0 Calma 5 Este 0 -- -- 97
2019-03-31 19:00:00 7.5 2 Sudeste 6 Sudeste 0 -- -- 96
2019-03-31 18:00:00 8.1 2 Sudeste 6 Sudeste 0 -- -- 95
2019-03-31 17:00:00 8.4 2 Sudeste 12 Oeste 0 -- -- 92
2019-03-31 16:00:00 7.5 2 Sudeste 11 Este 0 -- -- 96
2019-03-31 15:00:00 7.9 3 Este 12 Nordeste 0 -- -- 95
2019-03-31 14:00:00 8.7 3 Este 13 Este 0 -- -- 95
2019-03-31 13:00:00 9.2 2 Este 10 Este 0 -- -- 91
2019-03-31 12:00:00 9.2 3 Este 9 Oeste 0 -- -- 84
2019-03-31 11:00:00 8.3 3 Sudoeste 12 Oeste 0 -- -- 80
2019-03-31 10:00:00 7.4 7 Noroeste 18 Oeste 0 -- -- 79
2019-03-31 09:00:00 6 12 Oeste 32 Sudoeste 0 -- -- 88
2019-03-31 08:00:00 5.1 4 Oeste 19 Oeste 0 -- -- 78
2019-03-31 07:00:00 6.3 8 Oeste 17 Oeste 0 -- -- 61
2019-03-31 06:00:00 4.6 3 Oeste 11 Noroeste 0 -- -- 66
2019-03-31 05:00:00 3.9 5 Oeste 10 Oeste 0 -- -- 82
2019-03-31 04:00:00 3.9 5 Oeste 11 Oeste 0 -- -- 83
2019-03-31 00:00:00 6.5 6 Norte 16 Norte 0 -- -- 66
2019-03-30 23:00:00 5.1 4 Oeste 15 Oeste 0 -- -- 81
2019-03-30 22:00:00 5 8 Oeste 18 Oeste 0 -- -- 91
2019-03-30 21:00:00 5.4 5 Oeste 19 Oeste 0 -- -- 86
2019-03-30 20:00:00 5.8 5 Oeste 24 Oeste 0 -- -- 83
2019-03-30 19:00:00 7.4 10 Oeste 23 Oeste 0 -- -- 72
2019-03-30 18:00:00 8.8 11 Oeste 26 Oeste 0 -- -- 72
2019-03-30 17:00:00 10.8 4 Sudeste 12 Nordeste 0 -- -- 77
2019-03-30 16:00:00 9.2 4 Este 11 Sudeste 0 -- -- 82
2019-03-30 15:00:00 8.8 3 Sudeste 18 Sudeste 0 -- -- 87
2019-03-30 14:00:00 11.3 6 Sur 25 Oeste 0 -- -- 66
2019-03-30 13:00:00 11.2 6 Sudoeste 19 Oeste 0 -- -- 63
2019-03-30 12:00:00 8.7 6 Oeste 17 Oeste 0 -- -- 71
2019-03-30 11:00:00 7.2 4 Sudoeste 13 Oeste 0 -- -- 82
2019-03-30 10:00:00 6.6 5 Noroeste 15 Oeste 0 -- -- 84
2019-03-30 09:00:00 5.5 4 Noroeste 11 Nordeste 0.4 -- -- 81
2019-03-30 08:00:00 5.1 3 Oeste 7 Oeste 0 -- -- 89
2019-03-30 07:00:00 4.3 4 Noroeste 9 Norte 0 -- -- 87
2019-03-30 06:00:00 4.5 7 Norte 12 Norte 0 -- -- 90
2019-03-30 05:00:00 3.8 2 Nordeste 7 Nordeste 0 -- -- 87
2019-03-30 04:00:00 3.9 0 Calma 4 Nordeste 0 -- -- 84
2019-03-30 03:00:00 4.1 0 Calma 5 Nordeste 0 -- -- 81
2019-03-30 02:00:00 5.8 4 Noroeste 6 Noroeste 0 -- -- 72
2019-03-30 01:00:00 5.6 4 Noroeste 10 Noroeste 0 -- -- 82
2019-03-30 00:00:00 5.7 5 Noroeste 11 Nordeste 0 -- -- 86
2019-03-29 23:00:00 5.6 7 Nordeste 11 Nordeste 0 -- -- 87
2019-03-29 22:00:00 5.6 3 Oeste 8 Oeste 0 -- -- 98
2019-03-29 21:00:00 5.9 3 Oeste 10 Sudoeste 0 -- -- 98
2019-03-29 20:00:00 6.2 3 Oeste 12 Oeste 0 -- -- 97
2019-03-29 19:00:00 6.8 7 Oeste 18 Oeste 0 -- -- 98
2019-03-29 18:00:00 8.6 3 Este 12 Oeste 0 -- -- 91
2019-03-29 17:00:00 7.6 3 Sudeste 9 Sudeste 0 -- -- 97
2019-03-29 16:00:00 7.8 2 Este 9 Este 0 -- -- 97
2019-03-29 15:00:00 7.3 2 Este 12 Nordeste 0 -- -- 97
2019-03-29 14:00:00 8.6 4 Sudeste 17 Oeste 0 -- -- 92
2019-03-29 13:00:00 10.1 3 Este 8 Sudeste 0 -- -- 85
2019-03-29 12:00:00 10.6 3 Sudeste 15 Sudoeste 0 -- -- 81
2019-03-29 11:00:00 9.4 4 Sudoeste 13 Sudoeste 0 -- -- 66
2019-03-29 10:00:00 8.5 3 Oeste 10 Oeste 0 -- -- 63
2019-03-29 09:00:00 6.9 4 Oeste 7 Oeste 0 -- -- 74
2019-03-29 08:00:00 6.4 3 Oeste 7 Oeste 0 -- -- 75
2019-03-29 07:00:00 5.3 3 Noroeste 5 Noroeste 0 -- -- 78
2019-03-29 06:00:00 5.4 3 Noroeste 5 Noroeste 0 -- -- 72
2019-03-29 05:00:00 5.4 3 Noroeste 5 Noroeste 0 -- -- 77
2019-03-29 04:00:00 5.7 4 Noroeste 6 Noroeste 0 -- -- 76
2019-03-29 03:00:00 6.3 3 Oeste 6 Oeste 0 -- -- 75
2019-03-29 02:00:00 5.4 0 Calma 4 Nordeste 0 -- -- 77
2019-03-29 01:00:00 4.1 3 Nordeste 10 Nordeste 0 -- -- 78
2019-03-29 00:00:00 6.5 7 Nordeste 11 Nordeste 0 -- -- 86
2019-03-28 23:00:00 6.3 6 Nordeste 9 Nordeste 0 -- -- 90
2019-03-28 22:00:00 6.1 4 Nordeste 12 Este 0 -- -- 99
2019-03-28 21:00:00 6.1 8 Este 17 Nordeste 1 -- -- 99
2019-03-28 20:00:00 7.1 3 Este 7 Este 2.2 -- -- 99
2019-03-28 19:00:00 7.4 0 Calma 10 Oeste 0.6 -- -- 98
2019-03-28 18:00:00 7.9 2 Sudeste 6 Sur 1 -- -- 98
2019-03-28 17:00:00 8.4 3 Sudeste 6 Sudeste 0 -- -- 96
2019-03-28 16:00:00 9 3 Sudoeste 11 Noroeste 0 -- -- 97
2019-03-28 15:00:00 8.4 2 Nordeste 18 Oeste 0 -- -- 95
2019-03-28 14:00:00 9.5 5 Sudoeste 21 Oeste 0 -- -- 88
2019-03-28 13:00:00 10.6 3 Sudeste 11 Sur 0 -- -- 84
2019-03-28 12:00:00 9.2 2 Sudeste 8 Nordeste 0 -- -- 88
2019-03-28 11:00:00 9.7 3 Este 10 Oeste 0 -- -- 83
2019-03-28 10:00:00 10.7 3 Sudeste 10 Sudeste 0 -- -- 61
2019-03-28 09:00:00 8.5 4 Oeste 6 Oeste 0 -- -- 62
2019-03-28 08:00:00 7.7 0 Calma 5 Oeste 0 -- -- 60
2019-03-28 07:00:00 5 0 Calma 8 Noroeste 0 -- -- 62
2019-03-28 06:00:00 6.5 5 Nordeste 13 Nordeste 0 -- -- 54
2019-03-28 05:00:00 6.2 5 Norte 9 Nordeste 0 -- -- 52
2019-03-28 04:00:00 5.3 6 Nordeste 11 Nordeste 0 -- -- 61
2019-03-28 03:00:00 5.8 4 Nordeste 9 Nordeste 0 -- -- 64
2019-03-28 02:00:00 5.4 2 Nordeste 8 Nordeste 0 -- -- 78
2019-03-28 01:00:00 5.1 0 Calma 6 Oeste 0 -- -- 85
2019-03-28 00:00:00 6.3 4 Oeste 6 Oeste 0 -- -- 89
2019-03-27 23:00:00 6.1 2 Oeste 6 Noroeste 0 -- -- 93
2019-03-27 22:00:00 6.5 3 Oeste 8 Oeste 0 -- -- 98
2019-03-27 21:00:00 7 3 Oeste 18 Oeste 0 -- -- 98
2019-03-27 20:00:00 7.4 8 Oeste 16 Oeste 0 -- -- 97
2019-03-27 19:00:00 7.6 14 Oeste 22 Oeste 0 -- -- 94
2019-03-27 18:00:00 8.6 5 Oeste 15 Oeste 0 -- -- 90
2019-03-27 17:00:00 8.9 4 Oeste 18 Oeste 0 -- -- 91
2019-03-27 16:00:00 9.1 6 Sudoeste 20 Oeste 0 -- -- 92
2019-03-27 15:00:00 9.8 6 Oeste 15 Oeste 0.2 -- -- 90
2019-03-27 14:00:00 9.8 3 Nordeste 13 Noroeste 0 -- -- 91
2019-03-27 13:00:00 10.6 2 Sudeste 10 Sudeste 0 -- -- 87
2019-03-27 12:00:00 10.1 4 Noroeste 12 Oeste 0 -- -- 75
2019-03-27 11:00:00 9 5 Nordeste 22 Nordeste 0 -- -- 77
2019-03-27 10:00:00 8.6 5 Este 20 Nordeste 0 -- -- 87
2019-03-27 09:00:00 7.9 3 Este 15 Sudeste 0 -- -- 88
2019-03-27 08:00:00 7 3 Nordeste 12 Oeste 0 -- -- 95
2019-03-27 07:00:00 6.7 3 Este 12 Sudeste 0 -- -- 95
2019-03-27 06:00:00 6.6 3 Sudoeste 12 Oeste 0 -- -- 96
2019-03-27 05:00:00 6.4 5 Oeste 15 Oeste 0 -- -- 97
2019-03-27 04:00:00 6.3 4 Norte 15 Oeste 0 -- -- 97
2019-03-27 03:00:00 6.7 2 Nordeste 14 Oeste 0 -- -- 94
2019-03-27 02:00:00 6.5 2 Oeste 10 Oeste 0 -- -- 96
2019-03-27 01:00:00 6.4 5 Oeste 23 Nordeste 0 -- -- 94
2019-03-27 00:00:00 6.3 6 Norte 20 Norte 0 -- -- 84
2019-03-26 23:00:00 6.7 5 Noroeste 26 Oeste 0 -- -- 92
2019-03-26 22:00:00 6.1 9 Noroeste 20 Oeste 0 -- -- 88
2019-03-26 21:00:00 6.4 6 Oeste 16 Noroeste 0 -- -- 85
2019-03-26 20:00:00 6.7 4 Oeste 14 Sudoeste 0 -- -- 84
2019-03-26 19:00:00 9.1 3 Sudoeste 12 Sudeste 0 -- -- 79
2019-03-26 18:00:00 12.4 4 Este 17 Oeste 0 -- -- 70
2019-03-26 17:00:00 9.9 3 Este 15 Sur 0 -- -- 78
2019-03-26 16:00:00 12.1 5 Sudoeste 25 Oeste 0 -- -- 65
2019-03-26 15:00:00 11.5 5 Oeste 18 Oeste 0 -- -- 71
2019-03-26 14:00:00 10.4 4 Oeste 11 Oeste 0 -- -- 81
2019-03-26 13:00:00 8.7 4 Sudeste 16 Oeste 0 -- -- 92
2019-03-26 12:00:00 7.5 4 Oeste 10 Oeste 0 -- -- 95
2019-03-26 11:00:00 8.2 2 Sudeste 13 Este 0 -- -- 85
2019-03-26 10:00:00 7.8 5 Este 17 Este 0 -- -- 91
2019-03-26 09:00:00 7 4 Este 20 Nordeste 0 -- -- 90
2019-03-26 08:00:00 5.4 3 Oeste 8 Noroeste 0 -- -- 85
2019-03-26 07:00:00 4.3 3 Oeste 7 Noroeste 0 -- -- 86
2019-03-26 06:00:00 4.3 3 Oeste 6 Norte 0 -- -- 84
2019-03-26 05:00:00 3.8 2 Noroeste 6 Noroeste 0 -- -- 84
2019-03-26 04:00:00 3.8 0 Calma 12 Noroeste 0 -- -- 89
2019-03-26 03:00:00 4.7 4 Oeste 7 Sudeste 0 -- -- 86
2019-03-26 02:00:00 5.7 5 Noroeste 9 Noroeste 0 -- -- 80
2019-03-26 01:00:00 4.9 3 Oeste 12 Noroeste 0.2 -- -- 85
2019-03-26 00:00:00 4.9 4 Oeste 9 Oeste 0 -- -- 96
2019-03-25 23:00:00 5.1 0 Calma 9 Sur 0 -- -- 93
2019-03-25 22:00:00 5.9 4 Oeste 18 Oeste 0.2 -- -- 88
2019-03-25 21:00:00 6.5 10 Oeste 18 Oeste 0 -- -- 86
2019-03-25 20:00:00 5.9 3 Oeste 17 Oeste 0 -- -- 94
2019-03-25 19:00:00 6.4 7 Oeste 15 Oeste 0 -- -- 92
2019-03-25 18:00:00 7.5 8 Oeste 24 Sudoeste 0 -- -- 87
2019-03-25 17:00:00 9.3 6 Sudoeste 18 Noroeste 0 -- -- 79
2019-03-25 16:00:00 6.8 4 Este 32 Nordeste 5.8 -- -- 97
2019-03-25 15:00:00 6.1 0 Calma 9 Oeste 3.6 -- -- 97
2019-03-25 14:00:00 7.1 2 Nordeste 10 Oeste 0.6 -- -- 95
2019-03-25 13:00:00 6.4 3 Este 20 Oeste 0.2 -- -- 96
2019-03-25 12:00:00 8.1 6 Oeste 24 Oeste 0 -- -- 80
2019-03-25 11:00:00 8.4 7 Oeste 17 Oeste 0 -- -- 75
2019-03-25 10:00:00 6.5 10 Oeste 22 Oeste 0 -- -- 81
2019-03-25 09:00:00 6 12 Oeste 20 Oeste 0 -- -- 78
2019-03-25 08:00:00 5.7 13 Oeste 17 Oeste 0 -- -- 77
2019-03-25 07:00:00 6 4 Noroeste 7 Noroeste 0 -- -- 67
2019-03-25 06:00:00 5.2 0 Calma 6 Sudoeste 0 -- -- 72
2019-03-25 05:00:00 4.3 0 Calma 6 Noroeste 0 -- -- 83
2019-03-25 04:00:00 4.6 0 Calma 5 Oeste 0 -- -- 85
2019-03-25 03:00:00 4.7 2 Noroeste 11 Nordeste 0 -- -- 83
2019-03-25 02:00:00 5.2 7 Nordeste 14 Nordeste 0 -- -- 80
2019-03-25 01:00:00 4.5 0 Calma 9 Noroeste 0 -- -- 85
2019-03-25 00:00:00 5.2 6 Oeste 14 Oeste 0 -- -- 84